sensor_id;sensor_type;location;lat;lon;timestamp;P1;durP1;ratioP1;P2;durP2;ratioP2
5363;SDS011;2705;41.410;2.160;2023-12-22T00:43:08;1.92;;;1.17;;
5363;SDS011;2705;41.410;2.160;2023-12-22T00:45:38;1.20;;;1.10;;
5363;SDS011;2705;41.410;2.160;2023-12-22T00:48:07;1.50;;;1.20;;
5363;SDS011;2705;41.410;2.160;2023-12-22T00:50:36;2.23;;;1.20;;
5363;SDS011;2705;41.410;2.160;2023-12-22T00:53:05;3.13;;;1.10;;
5363;SDS011;2705;41.410;2.160;2023-12-22T00:55:34;10.33;;;2.03;;
5363;SDS011;2705;41.410;2.160;2023-12-22T00:58:04;1.23;;;1.10;;
5363;SDS011;2705;41.410;2.160;2023-12-22T01:00:33;3.27;;;1.20;;
5363;SDS011;2705;41.410;2.160;2023-12-22T01:03:03;1.53;;;1.30;;
5363;SDS011;2705;41.410;2.160;2023-12-22T01:05:32;3.47;;;1.40;;
5363;SDS011;2705;41.410;2.160;2023-12-22T01:08:01;1.63;;;1.20;;
5363;SDS011;2705;41.410;2.160;2023-12-22T01:10:31;1.40;;;1.10;;
5363;SDS011;2705;41.410;2.160;2023-12-22T01:13:00;1.10;;;1.00;;
5363;SDS011;2705;41.410;2.160;2023-12-22T01:15:30;1.10;;;1.00;;
5363;SDS011;2705;41.410;2.160;2023-12-22T01:18:00;5.17;;;1.10;;
5363;SDS011;2705;41.410;2.160;2023-12-22T01:20:29;2.20;;;1.20;;
5363;SDS011;2705;41.410;2.160;2023-12-22T01:22:58;2.60;;;1.27;;
5363;SDS011;2705;41.410;2.160;2023-12-22T01:25:27;1.40;;;1.30;;
5363;SDS011;2705;41.410;2.160;2023-12-22T01:27:56;4.67;;;1.13;;
5363;SDS011;2705;41.410;2.160;2023-12-22T01:30:31;2.60;;;1.00;;
5363;SDS011;2705;41.410;2.160;2023-12-22T01:33:00;1.90;;;1.20;;
5363;SDS011;2705;41.410;2.160;2023-12-22T01:35:29;2.13;;;1.30;;
5363;SDS011;2705;41.410;2.160;2023-12-22T01:37:58;1.77;;;1.20;;
5363;SDS011;2705;41.410;2.160;2023-12-22T01:40:27;10.33;;;1.47;;
5363;SDS011;2705;41.410;2.160;2023-12-22T01:42:56;1.37;;;1.10;;
5363;SDS011;2705;41.410;2.160;2023-12-22T01:45:25;1.47;;;1.03;;
5363;SDS011;2705;41.410;2.160;2023-12-22T01:47:56;1.10;;;1.00;;
5363;SDS011;2705;41.410;2.160;2023-12-22T01:50:26;10.07;;;1.27;;
5363;SDS011;2705;41.410;2.160;2023-12-22T01:52:55;2.13;;;1.10;;
5363;SDS011;2705;41.410;2.160;2023-12-22T01:55:25;1.00;;;1.00;;
5363;SDS011;2705;41.410;2.160;2023-12-22T01:57:54;3.57;;;0.90;;
5363;SDS011;2705;41.410;2.160;2023-12-22T02:00:24;3.53;;;1.20;;
5363;SDS011;2705;41.410;2.160;2023-12-22T02:02:53;1.30;;;1.20;;
5363;SDS011;2705;41.410;2.160;2023-12-22T02:05:24;1.10;;;1.00;;
5363;SDS011;2705;41.410;2.160;2023-12-22T02:07:53;5.03;;;1.20;;
5363;SDS011;2705;41.410;2.160;2023-12-22T02:10:22;1.10;;;1.00;;
5363;SDS011;2705;41.410;2.160;2023-12-22T02:12:51;4.93;;;1.10;;
5363;SDS011;2705;41.410;2.160;2023-12-22T02:15:20;1.50;;;1.40;;
5363;SDS011;2705;41.410;2.160;2023-12-22T02:17:51;3.83;;;1.40;;
5363;SDS011;2705;41.410;2.160;2023-12-22T02:20:27;2.33;;;1.50;;
5363;SDS011;2705;41.410;2.160;2023-12-22T02:22:58;2.50;;;1.87;;
5363;SDS011;2705;41.410;2.160;2023-12-22T02:25:27;3.03;;;1.77;;
5363;SDS011;2705;41.410;2.160;2023-12-22T02:27:57;1.83;;;1.37;;
5363;SDS011;2705;41.410;2.160;2023-12-22T02:30:31;3.30;;;2.27;;
5363;SDS011;2705;41.410;2.160;2023-12-22T02:33:04;1.50;;;1.40;;
5363;SDS011;2705;41.410;2.160;2023-12-22T02:35:36;2.60;;;1.30;;
5363;SDS011;2705;41.410;2.160;2023-12-22T02:38:10;1.30;;;1.20;;
5363;SDS011;2705;41.410;2.160;2023-12-22T02:40:41;1.10;;;1.00;;
5363;SDS011;2705;41.410;2.160;2023-12-22T02:43:10;1.33;;;1.23;;
5363;SDS011;2705;41.410;2.160;2023-12-22T02:45:40;1.17;;;1.07;;
5363;SDS011;2705;41.410;2.160;2023-12-22T02:48:09;3.33;;;1.30;;
5363;SDS011;2705;41.410;2.160;2023-12-22T02:50:39;1.57;;;1.20;;
5363;SDS011;2705;41.410;2.160;2023-12-22T02:53:09;1.80;;;1.40;;
5363;SDS011;2705;41.410;2.160;2023-12-22T02:55:38;1.47;;;1.23;;
5363;SDS011;2705;41.410;2.160;2023-12-22T02:58:07;1.30;;;1.20;;
5363;SDS011;2705;41.410;2.160;2023-12-22T03:00:37;2.30;;;1.83;;
5363;SDS011;2705;41.410;2.160;2023-12-22T03:03:09;1.20;;;1.10;;
5363;SDS011;2705;41.410;2.160;2023-12-22T03:05:37;2.50;;;1.07;;
5363;SDS011;2705;41.410;2.160;2023-12-22T03:08:07;1.60;;;1.30;;
5363;SDS011;2705;41.410;2.160;2023-12-22T03:10:37;1.30;;;1.20;;
5363;SDS011;2705;41.410;2.160;2023-12-22T03:13:06;1.57;;;1.40;;
5363;SDS011;2705;41.410;2.160;2023-12-22T03:15:35;1.70;;;1.60;;
5363;SDS011;2705;41.410;2.160;2023-12-22T03:18:04;2.07;;;1.47;;
5363;SDS011;2705;41.410;2.160;2023-12-22T03:20:34;1.40;;;1.30;;
5363;SDS011;2705;41.410;2.160;2023-12-22T03:23:03;1.30;;;1.20;;
5363;SDS011;2705;41.410;2.160;2023-12-22T03:25:32;3.27;;;1.50;;
5363;SDS011;2705;41.410;2.160;2023-12-22T03:28:02;2.83;;;1.70;;
5363;SDS011;2705;41.410;2.160;2023-12-22T03:30:32;2.17;;;1.40;;
5363;SDS011;2705;41.410;2.160;2023-12-22T03:33:03;1.50;;;1.40;;
5363;SDS011;2705;41.410;2.160;2023-12-22T03:35:33;1.53;;;1.30;;
5363;SDS011;2705;41.410;2.160;2023-12-22T03:38:02;3.20;;;1.37;;
5363;SDS011;2705;41.410;2.160;2023-12-22T03:40:31;1.30;;;1.20;;
5363;SDS011;2705;41.410;2.160;2023-12-22T03:43:00;1.47;;;1.20;;
5363;SDS011;2705;41.410;2.160;2023-12-22T03:45:31;1.53;;;1.20;;
5363;SDS011;2705;41.410;2.160;2023-12-22T03:48:00;1.10;;;1.00;;
5363;SDS011;2705;41.410;2.160;2023-12-22T03:50:30;1.37;;;1.20;;
5363;SDS011;2705;41.410;2.160;2023-12-22T03:52:59;1.30;;;1.20;;
5363;SDS011;2705;41.410;2.160;2023-12-22T03:55:28;1.30;;;1.20;;
5363;SDS011;2705;41.410;2.160;2023-12-22T03:57:57;1.20;;;1.10;;
5363;SDS011;2705;41.410;2.160;2023-12-22T04:00:27;1.43;;;1.33;;
5363;SDS011;2705;41.410;2.160;2023-12-22T04:02:56;1.77;;;1.30;;
5363;SDS011;2705;41.410;2.160;2023-12-22T04:05:25;1.90;;;1.20;;
5363;SDS011;2705;41.410;2.160;2023-12-22T04:07:54;1.33;;;1.23;;
5363;SDS011;2705;41.410;2.160;2023-12-22T04:10:24;1.20;;;1.00;;
5363;SDS011;2705;41.410;2.160;2023-12-22T04:12:53;1.23;;;1.13;;
5363;SDS011;2705;41.410;2.160;2023-12-22T04:15:22;2.13;;;1.30;;
5363;SDS011;2705;41.410;2.160;2023-12-22T04:17:52;2.37;;;1.27;;
5363;SDS011;2705;41.410;2.160;2023-12-22T04:20:21;2.47;;;1.60;;
5363;SDS011;2705;41.410;2.160;2023-12-22T04:22:51;2.40;;;1.13;;
5363;SDS011;2705;41.410;2.160;2023-12-22T04:25:20;3.10;;;1.20;;
5363;SDS011;2705;41.410;2.160;2023-12-22T04:27:50;1.67;;;1.30;;
5363;SDS011;2705;41.410;2.160;2023-12-22T04:30:19;2.07;;;1.17;;
5363;SDS011;2705;41.410;2.160;2023-12-22T04:32:48;1.63;;;1.03;;
5363;SDS011;2705;41.410;2.160;2023-12-22T04:35:18;2.27;;;1.10;;
5363;SDS011;2705;41.410;2.160;2023-12-22T04:37:47;5.37;;;1.67;;
5363;SDS011;2705;41.410;2.160;2023-12-22T04:40:17;1.87;;;1.40;;
5363;SDS011;2705;41.410;2.160;2023-12-22T04:42:46;2.60;;;1.83;;
5363;SDS011;2705;41.410;2.160;2023-12-22T04:45:15;2.10;;;1.20;;
5363;SDS011;2705;41.410;2.160;2023-12-22T04:47:44;3.53;;;1.50;;
5363;SDS011;2705;41.410;2.160;2023-12-22T04:50:14;1.53;;;1.17;;
5363;SDS011;2705;41.410;2.160;2023-12-22T04:52:44;1.43;;;1.33;;
5363;SDS011;2705;41.410;2.160;2023-12-22T04:55:13;3.00;;;2.70;;
5363;SDS011;2705;41.410;2.160;2023-12-22T04:57:43;3.40;;;3.03;;
5363;SDS011;2705;41.410;2.160;2023-12-22T05:00:12;2.53;;;1.23;;
5363;SDS011;2705;41.410;2.160;2023-12-22T05:02:42;5.80;;;1.40;;
5363;SDS011;2705;41.410;2.160;2023-12-22T05:05:11;2.43;;;1.30;;
5363;SDS011;2705;41.410;2.160;2023-12-22T05:07:40;2.33;;;1.40;;
5363;SDS011;2705;41.410;2.160;2023-12-22T05:10:11;3.20;;;1.70;;
5363;SDS011;2705;41.410;2.160;2023-12-22T05:12:40;2.10;;;1.37;;
5363;SDS011;2705;41.410;2.160;2023-12-22T05:15:09;1.57;;;1.23;;
5363;SDS011;2705;41.410;2.160;2023-12-22T05:17:37;2.73;;;1.40;;
5363;SDS011;2705;41.410;2.160;2023-12-22T05:20:07;3.23;;;1.20;;
5363;SDS011;2705;41.410;2.160;2023-12-22T05:22:37;2.43;;;1.53;;
5363;SDS011;2705;41.410;2.160;2023-12-22T05:25:07;1.80;;;1.70;;
5363;SDS011;2705;41.410;2.160;2023-12-22T05:27:38;2.07;;;1.80;;
5363;SDS011;2705;41.410;2.160;2023-12-22T05:30:10;2.60;;;1.50;;
5363;SDS011;2705;41.410;2.160;2023-12-22T05:32:40;3.90;;;1.57;;
5363;SDS011;2705;41.410;2.160;2023-12-22T05:35:10;4.83;;;1.80;;
5363;SDS011;2705;41.410;2.160;2023-12-22T05:37:39;5.93;;;1.90;;
5363;SDS011;2705;41.410;2.160;2023-12-22T05:40:08;2.73;;;1.80;;
5363;SDS011;2705;41.410;2.160;2023-12-22T05:42:40;2.50;;;1.67;;
5363;SDS011;2705;41.410;2.160;2023-12-22T05:45:09;2.43;;;1.70;;
5363;SDS011;2705;41.410;2.160;2023-12-22T05:47:39;2.83;;;1.80;;
5363;SDS011;2705;41.410;2.160;2023-12-22T05:50:08;5.07;;;1.50;;
5363;SDS011;2705;41.410;2.160;2023-12-22T05:52:38;5.17;;;1.90;;
5363;SDS011;2705;41.410;2.160;2023-12-22T05:55:06;3.00;;;1.80;;
5363;SDS011;2705;41.410;2.160;2023-12-22T05:57:35;4.23;;;2.40;;
5363;SDS011;2705;41.410;2.160;2023-12-22T06:00:07;4.13;;;1.80;;
5363;SDS011;2705;41.410;2.160;2023-12-22T06:02:38;3.37;;;1.50;;
5363;SDS011;2705;41.410;2.160;2023-12-22T06:05:07;4.50;;;1.97;;
5363;SDS011;2705;41.410;2.160;2023-12-22T06:07:36;4.03;;;2.03;;
5363;SDS011;2705;41.410;2.160;2023-12-22T06:10:06;5.60;;;1.90;;
5363;SDS011;2705;41.410;2.160;2023-12-22T06:12:36;6.57;;;1.87;;
5363;SDS011;2705;41.410;2.160;2023-12-22T06:15:07;5.60;;;2.43;;
5363;SDS011;2705;41.410;2.160;2023-12-22T06:17:36;5.10;;;3.17;;
5363;SDS011;2705;41.410;2.160;2023-12-22T06:20:06;6.23;;;2.33;;
5363;SDS011;2705;41.410;2.160;2023-12-22T06:22:36;5.20;;;2.43;;
5363;SDS011;2705;41.410;2.160;2023-12-22T06:25:05;5.00;;;2.20;;
5363;SDS011;2705;41.410;2.160;2023-12-22T06:27:36;3.93;;;2.30;;
5363;SDS011;2705;41.410;2.160;2023-12-22T06:30:07;3.03;;;2.27;;
5363;SDS011;2705;41.410;2.160;2023-12-22T06:32:37;5.90;;;2.23;;
5363;SDS011;2705;41.410;2.160;2023-12-22T06:35:08;5.03;;;2.57;;
5363;SDS011;2705;41.410;2.160;2023-12-22T06:37:43;7.70;;;2.73;;
5363;SDS011;2705;41.410;2.160;2023-12-22T06:40:13;6.20;;;3.17;;
5363;SDS011;2705;41.410;2.160;2023-12-22T06:42:42;6.10;;;2.50;;
5363;SDS011;2705;41.410;2.160;2023-12-22T06:45:13;4.90;;;2.33;;
5363;SDS011;2705;41.410;2.160;2023-12-22T06:47:42;7.03;;;2.10;;
5363;SDS011;2705;41.410;2.160;2023-12-22T06:50:11;10.10;;;2.20;;
5363;SDS011;2705;41.410;2.160;2023-12-22T06:52:40;9.80;;;3.00;;
5363;SDS011;2705;41.410;2.160;2023-12-22T06:55:10;10.97;;;2.60;;
5363;SDS011;2705;41.410;2.160;2023-12-22T06:57:39;5.57;;;2.43;;
5363;SDS011;2705;41.410;2.160;2023-12-22T07:00:10;6.27;;;2.40;;
5363;SDS011;2705;41.410;2.160;2023-12-22T07:02:41;11.50;;;2.53;;
5363;SDS011;2705;41.410;2.160;2023-12-22T07:07:58;7.83;;;2.43;;
5363;SDS011;2705;41.410;2.160;2023-12-22T07:10:27;6.23;;;1.73;;
5363;SDS011;2705;41.410;2.160;2023-12-22T07:12:56;6.53;;;2.10;;
5363;SDS011;2705;41.410;2.160;2023-12-22T07:15:26;15.00;;;2.50;;
5363;SDS011;2705;41.410;2.160;2023-12-22T07:17:56;8.37;;;2.90;;
5363;SDS011;2705;41.410;2.160;2023-12-22T07:20:26;13.37;;;2.67;;
5363;SDS011;2705;41.410;2.160;2023-12-22T07:22:55;11.70;;;2.40;;
5363;SDS011;2705;41.410;2.160;2023-12-22T07:25:24;5.27;;;1.77;;
5363;SDS011;2705;41.410;2.160;2023-12-22T07:27:54;3.50;;;1.53;;
5363;SDS011;2705;41.410;2.160;2023-12-22T07:30:23;6.53;;;1.57;;
5363;SDS011;2705;41.410;2.160;2023-12-22T07:32:52;5.93;;;2.13;;
5363;SDS011;2705;41.410;2.160;2023-12-22T07:35:22;2.70;;;1.40;;
5363;SDS011;2705;41.410;2.160;2023-12-22T07:37:51;5.97;;;1.73;;
5363;SDS011;2705;41.410;2.160;2023-12-22T07:40:22;4.30;;;2.00;;
5363;SDS011;2705;41.410;2.160;2023-12-22T07:42:52;2.77;;;1.10;;
5363;SDS011;2705;41.410;2.160;2023-12-22T07:45:21;3.23;;;1.33;;
5363;SDS011;2705;41.410;2.160;2023-12-22T07:47:54;6.37;;;1.80;;
5363;SDS011;2705;41.410;2.160;2023-12-22T07:50:25;8.77;;;1.97;;
5363;SDS011;2705;41.410;2.160;2023-12-22T07:52:54;13.53;;;2.37;;
5363;SDS011;2705;41.410;2.160;2023-12-22T07:55:24;3.60;;;1.90;;
5363;SDS011;2705;41.410;2.160;2023-12-22T07:57:52;6.57;;;1.57;;
5363;SDS011;2705;41.410;2.160;2023-12-22T08:00:22;2.83;;;1.60;;
5363;SDS011;2705;41.410;2.160;2023-12-22T08:02:51;3.03;;;1.63;;
5363;SDS011;2705;41.410;2.160;2023-12-22T08:05:20;3.33;;;1.40;;
5363;SDS011;2705;41.410;2.160;2023-12-22T08:07:51;4.57;;;1.63;;
5363;SDS011;2705;41.410;2.160;2023-12-22T08:10:20;3.93;;;1.97;;
5363;SDS011;2705;41.410;2.160;2023-12-22T08:12:49;4.10;;;1.63;;
5363;SDS011;2705;41.410;2.160;2023-12-22T08:15:18;4.93;;;1.77;;
5363;SDS011;2705;41.410;2.160;2023-12-22T08:17:58;7.57;;;2.73;;
5363;SDS011;2705;41.410;2.160;2023-12-22T08:20:28;4.40;;;1.97;;
5363;SDS011;2705;41.410;2.160;2023-12-22T08:23:04;6.27;;;1.50;;
5363;SDS011;2705;41.410;2.160;2023-12-22T08:25:39;5.13;;;1.93;;
5363;SDS011;2705;41.410;2.160;2023-12-22T08:28:11;4.40;;;2.00;;
5363;SDS011;2705;41.410;2.160;2023-12-22T08:30:40;3.47;;;1.90;;
5363;SDS011;2705;41.410;2.160;2023-12-22T08:33:09;4.70;;;1.90;;
5363;SDS011;2705;41.410;2.160;2023-12-22T08:35:40;8.07;;;1.77;;
5363;SDS011;2705;41.410;2.160;2023-12-22T08:38:11;4.20;;;1.80;;
5363;SDS011;2705;41.410;2.160;2023-12-22T08:40:42;5.70;;;1.73;;
5363;SDS011;2705;41.410;2.160;2023-12-22T08:43:12;4.17;;;1.77;;
5363;SDS011;2705;41.410;2.160;2023-12-22T08:45:41;9.77;;;2.10;;
5363;SDS011;2705;41.410;2.160;2023-12-22T08:48:10;9.17;;;4.30;;
5363;SDS011;2705;41.410;2.160;2023-12-22T08:50:39;9.53;;;1.97;;
5363;SDS011;2705;41.410;2.160;2023-12-22T08:53:09;12.63;;;2.23;;
5363;SDS011;2705;41.410;2.160;2023-12-22T08:55:39;7.90;;;3.80;;
5363;SDS011;2705;41.410;2.160;2023-12-22T08:58:08;4.93;;;2.30;;
5363;SDS011;2705;41.410;2.160;2023-12-22T09:00:37;5.43;;;2.20;;
5363;SDS011;2705;41.410;2.160;2023-12-22T09:03:06;17.00;;;2.30;;
5363;SDS011;2705;41.410;2.160;2023-12-22T09:05:35;8.20;;;1.80;;
5363;SDS011;2705;41.410;2.160;2023-12-22T09:08:05;6.50;;;2.30;;
5363;SDS011;2705;41.410;2.160;2023-12-22T09:10:35;3.50;;;1.60;;
5363;SDS011;2705;41.410;2.160;2023-12-22T09:13:05;2.93;;;1.70;;
5363;SDS011;2705;41.410;2.160;2023-12-22T09:15:34;8.37;;;2.83;;
5363;SDS011;2705;41.410;2.160;2023-12-22T09:18:03;7.80;;;2.07;;
5363;SDS011;2705;41.410;2.160;2023-12-22T09:20:33;10.50;;;2.10;;
5363;SDS011;2705;41.410;2.160;2023-12-22T09:23:02;4.73;;;1.90;;
5363;SDS011;2705;41.410;2.160;2023-12-22T09:25:36;3.17;;;1.63;;
5363;SDS011;2705;41.410;2.160;2023-12-22T09:28:06;4.87;;;2.20;;
5363;SDS011;2705;41.410;2.160;2023-12-22T09:30:35;3.47;;;1.70;;
5363;SDS011;2705;41.410;2.160;2023-12-22T09:33:04;6.10;;;1.90;;
5363;SDS011;2705;41.410;2.160;2023-12-22T09:35:33;8.40;;;2.70;;
5363;SDS011;2705;41.410;2.160;2023-12-22T09:38:02;4.67;;;1.60;;
5363;SDS011;2705;41.410;2.160;2023-12-22T09:40:32;9.20;;;2.27;;
5363;SDS011;2705;41.410;2.160;2023-12-22T09:43:05;12.43;;;3.07;;
5363;SDS011;2705;41.410;2.160;2023-12-22T09:45:35;8.33;;;2.60;;
5363;SDS011;2705;41.410;2.160;2023-12-22T09:48:06;6.27;;;1.70;;
5363;SDS011;2705;41.410;2.160;2023-12-22T09:50:38;5.07;;;2.87;;
5363;SDS011;2705;41.410;2.160;2023-12-22T09:53:09;5.80;;;2.67;;
5363;SDS011;2705;41.410;2.160;2023-12-22T09:55:42;9.13;;;3.80;;
5363;SDS011;2705;41.410;2.160;2023-12-22T09:58:15;8.20;;;2.50;;
5363;SDS011;2705;41.410;2.160;2023-12-22T10:00:45;14.77;;;2.50;;
5363;SDS011;2705;41.410;2.160;2023-12-22T10:03:17;9.17;;;2.20;;
5363;SDS011;2705;41.410;2.160;2023-12-22T10:05:48;5.70;;;2.40;;
5363;SDS011;2705;41.410;2.160;2023-12-22T10:08:18;6.07;;;3.60;;
5363;SDS011;2705;41.410;2.160;2023-12-22T10:10:47;7.77;;;2.60;;
5363;SDS011;2705;41.410;2.160;2023-12-22T10:13:21;2.67;;;2.00;;
5363;SDS011;2705;41.410;2.160;2023-12-22T10:15:51;4.27;;;3.07;;
5363;SDS011;2705;41.410;2.160;2023-12-22T10:18:22;5.53;;;2.93;;
5363;SDS011;2705;41.410;2.160;2023-12-22T10:20:51;4.50;;;1.70;;
5363;SDS011;2705;41.410;2.160;2023-12-22T10:23:20;5.40;;;2.00;;
5363;SDS011;2705;41.410;2.160;2023-12-22T10:25:49;9.90;;;4.23;;
5363;SDS011;2705;41.410;2.160;2023-12-22T10:28:20;3.00;;;2.03;;
5363;SDS011;2705;41.410;2.160;2023-12-22T10:30:51;2.40;;;1.70;;
5363;SDS011;2705;41.410;2.160;2023-12-22T10:33:23;3.07;;;1.70;;
5363;SDS011;2705;41.410;2.160;2023-12-22T10:35:53;4.73;;;1.77;;
5363;SDS011;2705;41.410;2.160;2023-12-22T10:38:22;9.63;;;1.37;;
5363;SDS011;2705;41.410;2.160;2023-12-22T10:40:51;3.37;;;1.40;;
5363;SDS011;2705;41.410;2.160;2023-12-22T10:43:22;3.33;;;2.53;;
5363;SDS011;2705;41.410;2.160;2023-12-22T10:45:51;9.00;;;2.00;;
5363;SDS011;2705;41.410;2.160;2023-12-22T10:48:21;4.07;;;2.27;;
5363;SDS011;2705;41.410;2.160;2023-12-22T10:50:51;2.80;;;1.90;;
5363;SDS011;2705;41.410;2.160;2023-12-22T10:53:20;7.30;;;2.43;;
5363;SDS011;2705;41.410;2.160;2023-12-22T10:55:51;1.80;;;1.50;;
5363;SDS011;2705;41.410;2.160;2023-12-22T10:58:22;4.60;;;1.50;;
5363;SDS011;2705;41.410;2.160;2023-12-22T11:00:52;4.17;;;1.50;;
5363;SDS011;2705;41.410;2.160;2023-12-22T11:03:22;3.00;;;1.90;;
5363;SDS011;2705;41.410;2.160;2023-12-22T11:05:55;6.30;;;2.20;;
5363;SDS011;2705;41.410;2.160;2023-12-22T11:08:27;6.63;;;1.83;;
5363;SDS011;2705;41.410;2.160;2023-12-22T11:10:58;7.03;;;3.00;;
5363;SDS011;2705;41.410;2.160;2023-12-22T11:13:38;5.37;;;1.80;;
5363;SDS011;2705;41.410;2.160;2023-12-22T11:16:08;3.23;;;1.70;;
5363;SDS011;2705;41.410;2.160;2023-12-22T11:18:38;12.00;;;5.10;;
5363;SDS011;2705;41.410;2.160;2023-12-22T11:21:08;3.50;;;2.03;;
5363;SDS011;2705;41.410;2.160;2023-12-22T11:23:41;3.53;;;1.90;;
5363;SDS011;2705;41.410;2.160;2023-12-22T11:26:11;2.73;;;1.83;;
5363;SDS011;2705;41.410;2.160;2023-12-22T11:28:43;2.70;;;2.10;;
5363;SDS011;2705;41.410;2.160;2023-12-22T11:31:14;4.70;;;1.70;;
5363;SDS011;2705;41.410;2.160;2023-12-22T11:33:44;8.87;;;2.17;;
5363;SDS011;2705;41.410;2.160;2023-12-22T11:36:30;3.43;;;1.50;;
5363;SDS011;2705;41.410;2.160;2023-12-22T11:39:00;3.77;;;2.20;;
5363;SDS011;2705;41.410;2.160;2023-12-22T11:41:29;3.20;;;1.60;;
5363;SDS011;2705;41.410;2.160;2023-12-22T11:44:03;5.33;;;1.73;;
5363;SDS011;2705;41.410;2.160;2023-12-22T11:46:33;4.23;;;1.40;;
5363;SDS011;2705;41.410;2.160;2023-12-22T11:49:03;4.83;;;2.10;;
5363;SDS011;2705;41.410;2.160;2023-12-22T11:51:33;4.90;;;1.70;;
5363;SDS011;2705;41.410;2.160;2023-12-22T11:54:02;4.37;;;1.93;;
5363;SDS011;2705;41.410;2.160;2023-12-22T11:56:32;2.50;;;1.70;;
5363;SDS011;2705;41.410;2.160;2023-12-22T11:59:05;2.97;;;2.10;;
5363;SDS011;2705;41.410;2.160;2023-12-22T12:01:35;6.43;;;3.03;;
5363;SDS011;2705;41.410;2.160;2023-12-22T12:04:07;11.53;;;2.33;;
5363;SDS011;2705;41.410;2.160;2023-12-22T12:06:36;3.60;;;1.70;;
5363;SDS011;2705;41.410;2.160;2023-12-22T12:09:06;5.23;;;1.83;;
5363;SDS011;2705;41.410;2.160;2023-12-22T12:14:41;4.37;;;1.90;;
5363;SDS011;2705;41.410;2.160;2023-12-22T12:17:12;3.17;;;1.80;;
5363;SDS011;2705;41.410;2.160;2023-12-22T12:19:46;4.33;;;2.10;;
5363;SDS011;2705;41.410;2.160;2023-12-22T12:22:16;4.60;;;1.90;;
5363;SDS011;2705;41.410;2.160;2023-12-22T12:24:48;2.30;;;1.57;;
5363;SDS011;2705;41.410;2.160;2023-12-22T12:27:18;5.97;;;1.70;;
5363;SDS011;2705;41.410;2.160;2023-12-22T12:29:49;9.33;;;1.90;;
5363;SDS011;2705;41.410;2.160;2023-12-22T12:32:19;11.10;;;2.33;;
5363;SDS011;2705;41.410;2.160;2023-12-22T12:34:52;3.07;;;1.87;;
5363;SDS011;2705;41.410;2.160;2023-12-22T12:37:24;7.83;;;1.70;;
5363;SDS011;2705;41.410;2.160;2023-12-22T12:39:54;3.30;;;1.80;;
5363;SDS011;2705;41.410;2.160;2023-12-22T12:42:28;2.90;;;1.50;;
5363;SDS011;2705;41.410;2.160;2023-12-22T12:45:00;4.70;;;2.43;;
5363;SDS011;2705;41.410;2.160;2023-12-22T12:47:31;6.23;;;2.30;;
5363;SDS011;2705;41.410;2.160;2023-12-22T12:50:01;8.40;;;2.00;;
5363;SDS011;2705;41.410;2.160;2023-12-22T12:52:31;8.43;;;2.90;;
5363;SDS011;2705;41.410;2.160;2023-12-22T12:55:00;10.77;;;4.70;;
5363;SDS011;2705;41.410;2.160;2023-12-22T12:57:29;5.57;;;2.30;;
5363;SDS011;2705;41.410;2.160;2023-12-22T13:00:00;5.20;;;2.17;;
5363;SDS011;2705;41.410;2.160;2023-12-22T13:02:29;4.07;;;2.87;;
5363;SDS011;2705;41.410;2.160;2023-12-22T13:05:03;4.43;;;2.47;;
5363;SDS011;2705;41.410;2.160;2023-12-22T13:07:37;3.90;;;1.57;;
5363;SDS011;2705;41.410;2.160;2023-12-22T13:10:18;6.47;;;1.80;;
5363;SDS011;2705;41.410;2.160;2023-12-22T13:12:49;5.03;;;2.10;;
5363;SDS011;2705;41.410;2.160;2023-12-22T13:15:22;2.43;;;1.70;;
5363;SDS011;2705;41.410;2.160;2023-12-22T13:17:52;3.97;;;1.47;;
5363;SDS011;2705;41.410;2.160;2023-12-22T13:20:22;5.10;;;2.10;;
5363;SDS011;2705;41.410;2.160;2023-12-22T13:22:51;5.73;;;1.90;;
5363;SDS011;2705;41.410;2.160;2023-12-22T13:25:20;4.50;;;2.57;;
5363;SDS011;2705;41.410;2.160;2023-12-22T13:27:51;3.20;;;2.00;;
5363;SDS011;2705;41.410;2.160;2023-12-22T13:30:33;7.03;;;2.90;;
5363;SDS011;2705;41.410;2.160;2023-12-22T13:33:03;3.40;;;2.27;;
5363;SDS011;2705;41.410;2.160;2023-12-22T13:35:33;10.53;;;2.70;;
5363;SDS011;2705;41.410;2.160;2023-12-22T13:38:08;10.00;;;2.60;;
5363;SDS011;2705;41.410;2.160;2023-12-22T13:40:38;4.90;;;2.40;;
5363;SDS011;2705;41.410;2.160;2023-12-22T13:43:12;3.30;;;1.80;;
5363;SDS011;2705;41.410;2.160;2023-12-22T13:45:43;2.60;;;1.47;;
5363;SDS011;2705;41.410;2.160;2023-12-22T13:48:18;2.50;;;1.50;;
5363;SDS011;2705;41.410;2.160;2023-12-22T13:50:54;3.73;;;1.60;;
5363;SDS011;2705;41.410;2.160;2023-12-22T13:53:25;3.77;;;1.90;;
5363;SDS011;2705;41.410;2.160;2023-12-22T13:55:55;2.50;;;1.73;;
5363;SDS011;2705;41.410;2.160;2023-12-22T13:58:24;8.27;;;2.70;;
5363;SDS011;2705;41.410;2.160;2023-12-22T14:00:55;6.90;;;2.07;;
5363;SDS011;2705;41.410;2.160;2023-12-22T14:03:31;7.80;;;1.90;;
5363;SDS011;2705;41.410;2.160;2023-12-22T14:06:01;2.00;;;1.50;;
5363;SDS011;2705;41.410;2.160;2023-12-22T14:08:30;7.20;;;2.63;;
5363;SDS011;2705;41.410;2.160;2023-12-22T14:11:00;5.60;;;2.37;;
5363;SDS011;2705;41.410;2.160;2023-12-22T14:13:29;10.87;;;2.13;;
5363;SDS011;2705;41.410;2.160;2023-12-22T14:16:00;2.27;;;2.03;;
5363;SDS011;2705;41.410;2.160;2023-12-22T14:18:29;4.83;;;2.30;;
5363;SDS011;2705;41.410;2.160;2023-12-22T14:20:58;3.40;;;1.87;;
5363;SDS011;2705;41.410;2.160;2023-12-22T14:23:27;3.37;;;2.47;;
5363;SDS011;2705;41.410;2.160;2023-12-22T14:25:56;4.30;;;2.20;;
5363;SDS011;2705;41.410;2.160;2023-12-22T14:28:26;5.40;;;2.00;;
5363;SDS011;2705;41.410;2.160;2023-12-22T14:30:55;16.17;;;4.07;;
5363;SDS011;2705;41.410;2.160;2023-12-22T14:33:26;7.10;;;1.73;;
5363;SDS011;2705;41.410;2.160;2023-12-22T14:35:55;7.57;;;2.80;;
5363;SDS011;2705;41.410;2.160;2023-12-22T14:38:24;9.10;;;3.37;;
5363;SDS011;2705;41.410;2.160;2023-12-22T14:40:53;16.43;;;3.87;;
5363;SDS011;2705;41.410;2.160;2023-12-22T14:43:22;16.50;;;3.70;;
5363;SDS011;2705;41.410;2.160;2023-12-22T14:45:51;6.37;;;3.47;;
5363;SDS011;2705;41.410;2.160;2023-12-22T14:48:20;11.80;;;3.20;;
5363;SDS011;2705;41.410;2.160;2023-12-22T14:50:51;13.70;;;2.90;;
5363;SDS011;2705;41.410;2.160;2023-12-22T14:53:20;8.00;;;3.00;;
5363;SDS011;2705;41.410;2.160;2023-12-22T14:55:49;8.73;;;3.70;;
5363;SDS011;2705;41.410;2.160;2023-12-22T14:58:20;7.63;;;3.13;;
5363;SDS011;2705;41.410;2.160;2023-12-22T15:00:49;11.03;;;5.50;;
5363;SDS011;2705;41.410;2.160;2023-12-22T15:03:18;5.70;;;2.77;;
5363;SDS011;2705;41.410;2.160;2023-12-22T15:05:47;17.80;;;6.23;;
5363;SDS011;2705;41.410;2.160;2023-12-22T15:08:18;13.30;;;6.57;;
5363;SDS011;2705;41.410;2.160;2023-12-22T15:10:47;19.47;;;5.97;;
5363;SDS011;2705;41.410;2.160;2023-12-22T15:13:16;10.87;;;4.90;;
5363;SDS011;2705;41.410;2.160;2023-12-22T15:15:45;13.93;;;5.43;;
5363;SDS011;2705;41.410;2.160;2023-12-22T15:18:16;9.30;;;5.50;;
5363;SDS011;2705;41.410;2.160;2023-12-22T15:20:45;12.70;;;5.17;;
5363;SDS011;2705;41.410;2.160;2023-12-22T15:23:16;9.50;;;4.30;;
5363;SDS011;2705;41.410;2.160;2023-12-22T15:25:46;12.03;;;4.50;;
5363;SDS011;2705;41.410;2.160;2023-12-22T15:28:15;7.63;;;4.37;;
5363;SDS011;2705;41.410;2.160;2023-12-22T15:30:44;10.30;;;4.10;;
5363;SDS011;2705;41.410;2.160;2023-12-22T15:33:13;7.80;;;3.60;;
5363;SDS011;2705;41.410;2.160;2023-12-22T15:35:42;15.73;;;3.87;;
5363;SDS011;2705;41.410;2.160;2023-12-22T15:38:13;11.80;;;4.10;;
5363;SDS011;2705;41.410;2.160;2023-12-22T15:40:42;9.63;;;3.70;;
5363;SDS011;2705;41.410;2.160;2023-12-22T15:43:13;14.40;;;4.20;;
5363;SDS011;2705;41.410;2.160;2023-12-22T15:45:42;12.70;;;4.70;;
5363;SDS011;2705;41.410;2.160;2023-12-22T15:48:12;13.13;;;4.30;;
5363;SDS011;2705;41.410;2.160;2023-12-22T15:50:43;8.73;;;3.60;;
5363;SDS011;2705;41.410;2.160;2023-12-22T15:53:13;12.33;;;3.43;;
5363;SDS011;2705;41.410;2.160;2023-12-22T15:55:42;7.93;;;3.70;;
5363;SDS011;2705;41.410;2.160;2023-12-22T15:58:12;11.80;;;3.93;;
5363;SDS011;2705;41.410;2.160;2023-12-22T16:00:42;12.03;;;4.90;;
5363;SDS011;2705;41.410;2.160;2023-12-22T16:03:11;12.63;;;4.27;;
5363;SDS011;2705;41.410;2.160;2023-12-22T16:05:40;7.17;;;3.40;;
5363;SDS011;2705;41.410;2.160;2023-12-22T16:08:09;9.40;;;3.70;;
5363;SDS011;2705;41.410;2.160;2023-12-22T16:10:38;20.30;;;4.47;;
5363;SDS011;2705;41.410;2.160;2023-12-22T16:13:08;5.83;;;3.80;;
5363;SDS011;2705;41.410;2.160;2023-12-22T16:15:41;13.27;;;4.77;;
5363;SDS011;2705;41.410;2.160;2023-12-22T16:18:10;9.13;;;3.50;;